Terminal Aerodrome Forecast
Issued by NWS Twin Cities, MN

Home | Current Version | Previous Version | Text Only | Print | Product List | Glossary On
Versions: 1 2 3 4 5 6 7 8 9 10 11 12 13 14 15 16 17 18 19 20 21 22
016
FTUS43 KMPX 172330
TAFSTC
TAF
KSTC 172330Z 1800/1824 29012KT P6SM SKC
     FM180900 11005KT P6SM SCT050 OVC090
     FM181200 12011KT P6SM OVC050 WS020/18050KT
     FM181600 13016G24KT P6SM FEW025 OVC050
     FM182100 18009KT P6SM OVC025=

USA.gov is the U.S. government's official web portal to all federal, state and local government web resources and services.